createdAt,value
2017-04-13T00:01:01.813Z,0
2017-04-13T00:03:14.118Z,0
2017-04-13T00:05:26.353Z,0
2017-04-13T00:07:38.654Z,0
2017-04-13T00:09:50.875Z,0
2017-04-13T00:12:03.163Z,0
2017-04-13T00:14:15.554Z,0
2017-04-13T00:16:27.762Z,0
2017-04-13T00:18:40.143Z,0
2017-04-13T00:22:58.194Z,0
2017-04-13T00:25:10.489Z,0
2017-04-13T00:27:22.763Z,0
2017-04-13T00:29:30.050Z,0
2017-04-13T00:31:42.780Z,0
2017-04-13T00:33:49.978Z,0
2017-04-13T00:36:02.374Z,0
2017-04-13T00:38:09.556Z,0
2017-04-13T00:40:21.921Z,0
2017-04-13T00:42:34.213Z,0
2017-04-13T00:44:46.416Z,0
2017-04-13T00:46:58.617Z,0
2017-04-13T00:49:10.853Z,0
2017-04-13T00:51:18.178Z,0
2017-04-13T00:53:30.551Z,0
2017-04-13T00:55:43.521Z,0
2017-04-13T00:57:56.008Z,0
2017-04-13T01:00:08.265Z,0
2017-04-13T01:02:20.603Z,0
2017-04-13T01:04:32.862Z,0
2017-04-13T01:08:50.758Z,0
2017-04-13T01:11:03.121Z,0
2017-04-13T01:13:13.696Z,0
2017-04-13T01:15:26.094Z,0
2017-04-13T01:17:38.361Z,0
2017-04-13T01:19:50.594Z,0
2017-04-13T01:22:02.829Z,0
2017-04-13T01:24:15.028Z,0
2017-04-13T01:26:22.370Z,0
2017-04-13T01:28:34.646Z,0
2017-04-13T01:30:47.604Z,0
2017-04-13T01:33:00.005Z,0
2017-04-13T01:35:12.263Z,0
2017-04-13T01:37:19.580Z,0
2017-04-13T01:39:31.807Z,0
2017-04-13T01:41:44.093Z,0
2017-04-13T01:43:57.202Z,0
2017-04-13T01:46:09.443Z,0
2017-04-13T01:48:21.772Z,0
2017-04-13T01:50:33.899Z,0
2017-04-13T01:52:46.133Z,0
2017-04-13T01:54:58.375Z,0
2017-04-13T01:57:05.610Z,0
2017-04-13T01:59:17.844Z,0
2017-04-13T02:01:30.097Z,0
2017-04-13T02:03:42.457Z,0
2017-04-13T02:05:55.039Z,0
2017-04-13T02:08:02.568Z,0
2017-04-13T02:10:14.816Z,0
2017-04-13T02:12:22.044Z,0
2017-04-13T02:14:34.300Z,0
2017-04-13T02:16:46.484Z,0
2017-04-13T02:18:58.792Z,0
2017-04-13T02:21:11.048Z,0
2017-04-13T02:23:23.275Z,0
2017-04-13T02:25:35.646Z,0
2017-04-13T02:27:47.939Z,0
2017-04-13T02:30:00.230Z,0
2017-04-13T02:32:12.451Z,0
2017-04-13T02:34:24.790Z,0
2017-04-13T02:36:37.116Z,0
2017-04-13T02:38:49.318Z,0
2017-04-13T02:41:01.635Z,0
2017-04-13T02:43:14.107Z,0
2017-04-13T02:45:26.585Z,0
2017-04-13T02:47:33.999Z,0
2017-04-13T02:49:47.015Z,0
2017-04-13T02:51:59.239Z,0
2017-04-13T02:54:11.422Z,0
2017-04-13T02:56:23.700Z,0
2017-04-13T02:58:35.942Z,0
2017-04-13T03:00:48.172Z,0
2017-04-13T03:03:00.418Z,0
2017-04-13T03:05:12.745Z,0
2017-04-13T03:07:25.013Z,0
2017-04-13T03:09:37.402Z,0
2017-04-13T03:11:49.602Z,0
2017-04-13T03:14:02.311Z,0
2017-04-13T03:16:09.642Z,0
2017-04-13T03:18:22.742Z,0
2017-04-13T03:20:35.917Z,0
2017-04-13T03:22:48.165Z,0
2017-04-13T03:25:00.501Z,0
2017-04-13T03:27:12.796Z,0
2017-04-13T03:29:25.068Z,0
2017-04-13T03:31:37.377Z,0
2017-04-13T03:33:49.596Z,0
2017-04-13T03:36:01.854Z,0
2017-04-13T03:38:14.144Z,0
2017-04-13T03:40:26.421Z,0
2017-04-13T03:42:38.739Z,0
2017-04-13T03:44:50.988Z,0
2017-04-13T03:47:03.261Z,0
2017-04-13T03:49:15.535Z,0
2017-04-13T03:51:27.764Z,0
2017-04-13T03:53:40.250Z,0
2017-04-13T03:55:52.846Z,0
2017-04-13T03:58:05.191Z,0
2017-04-13T04:00:17.532Z,0
2017-04-13T04:02:29.734Z,0
2017-04-13T04:04:42.051Z,0
2017-04-13T04:06:54.249Z,4
2017-04-13T04:09:06.613Z,4
2017-04-13T04:11:18.902Z,4
2017-04-13T04:13:31.100Z,8
2017-04-13T04:15:43.355Z,8
2017-04-13T04:17:55.580Z,20
2017-04-13T04:20:07.924Z,32
2017-04-13T04:22:20.357Z,44
2017-04-13T04:24:32.555Z,68
2017-04-13T04:26:44.831Z,100
2017-04-13T04:28:57.241Z,128
2017-04-13T04:31:09.524Z,156
2017-04-13T04:33:22.142Z,184
2017-04-13T04:35:34.399Z,200
2017-04-13T04:37:46.593Z,232
2017-04-13T04:39:59.043Z,296
2017-04-13T04:42:11.321Z,340
2017-04-13T04:44:23.754Z,412
2017-04-13T04:46:35.940Z,472
2017-04-13T04:48:48.164Z,572
2017-04-13T04:51:00.339Z,608
2017-04-13T04:53:12.642Z,712
2017-04-13T04:55:24.783Z,852
2017-04-13T04:57:37.059Z,808
2017-04-13T04:59:53.977Z,948
2017-04-13T05:02:06.288Z,1092
2017-04-13T05:04:18.698Z,1220
2017-04-13T05:06:32.607Z,1084
2017-04-13T05:08:44.922Z,1304
2017-04-13T05:10:57.408Z,1412
2017-04-13T05:13:10.999Z,1480
2017-04-13T05:15:23.666Z,1476
2017-04-13T05:17:35.794Z,1568
2017-04-13T05:19:48.143Z,1680
2017-04-13T05:22:00.400Z,1972
2017-04-13T05:24:12.589Z,2260
2017-04-13T05:26:24.930Z,2308
2017-04-13T05:28:32.232Z,2272
2017-04-13T05:30:44.464Z,2224
2017-04-13T05:32:51.774Z,2304
2017-04-13T05:35:04.052Z,2412
2017-04-13T05:37:16.364Z,2536
2017-04-13T05:39:29.055Z,2748
2017-04-13T05:41:41.426Z,2832
2017-04-13T05:44:08.213Z,3488
2017-04-13T05:47:35.272Z,3332
2017-04-13T05:49:57.641Z,3524
2017-04-13T05:52:39.724Z,3308
2017-04-13T05:54:48.065Z,3608
2017-04-13T05:57:00.304Z,3664
2017-04-13T05:59:18.596Z,3524
2017-04-13T06:01:38.993Z,3552
2017-04-13T06:03:57.078Z,3400
2017-04-13T06:06:10.591Z,3524
2017-04-13T06:08:49.890Z,3084
2017-04-13T06:11:02.998Z,3100
2017-04-13T06:13:16.099Z,3176
2017-04-13T06:16:04.682Z,3556
2017-04-13T06:18:18.728Z,3648
2017-04-13T06:20:30.970Z,3596
2017-04-13T06:22:44.370Z,3820
2017-04-13T06:24:57.707Z,3476
2017-04-13T06:27:10.642Z,3420
2017-04-13T06:29:19.227Z,3512
2017-04-13T06:31:32.343Z,3304
2017-04-13T06:33:45.336Z,2984
2017-04-13T06:35:57.850Z,2548
2017-04-13T06:38:11.055Z,2404
2017-04-13T06:40:23.891Z,2368
2017-04-13T06:43:07.814Z,2280
2017-04-13T06:45:26.196Z,2360
2017-04-13T06:47:40.675Z,1932
2017-04-13T06:49:51.702Z,1628
2017-04-13T06:52:35.590Z,1656
2017-04-13T06:54:47.939Z,1704
2017-04-13T06:57:03.973Z,1820
2017-04-13T06:59:17.212Z,1788
2017-04-13T07:01:29.888Z,1596
2017-04-13T07:03:42.294Z,1800
2017-04-13T07:05:55.048Z,1756
2017-04-13T07:08:35.302Z,1792
2017-04-13T07:11:13.499Z,1988
2017-04-13T07:13:54.486Z,2640
2017-04-13T07:16:39.470Z,1880
2017-04-13T07:18:59.159Z,1852
2017-04-13T07:21:45.241Z,2904
2017-04-13T07:24:34.279Z,2732
2017-04-13T07:27:18.739Z,2844
2017-04-13T07:29:37.716Z,2068
2017-04-13T07:31:50.397Z,2480
2017-04-13T07:34:04.402Z,4100
2017-04-13T07:36:18.262Z,4452
2017-04-13T07:38:31.949Z,4252
2017-04-13T07:41:12.939Z,5780
2017-04-13T07:43:53.055Z,6168
2017-04-13T07:46:42.068Z,5488
2017-04-13T07:49:01.051Z,7436
2017-04-13T07:51:14.950Z,10224
2017-04-13T07:53:29.622Z,12552
2017-04-13T07:55:43.147Z,12888
2017-04-13T07:57:56.867Z,12800
2017-04-13T08:00:11.992Z,14088
2017-04-13T08:02:25.174Z,16352
2017-04-13T08:04:37.835Z,14752
2017-04-13T08:06:50.200Z,14696
2017-04-13T08:09:03.964Z,12204
2017-04-13T08:11:11.215Z,8812
2017-04-13T08:13:18.744Z,6672
2017-04-13T08:15:31.007Z,5528
2017-04-13T08:17:43.258Z,6012
2017-04-13T08:19:55.481Z,6520
2017-04-13T08:22:08.075Z,6272
2017-04-13T08:24:20.411Z,4188
2017-04-13T08:26:32.749Z,3324
2017-04-13T08:28:45.162Z,2792
2017-04-13T08:30:57.392Z,1960
2017-04-13T08:33:09.854Z,3492
2017-04-13T08:35:22.947Z,3892
2017-04-13T08:37:28.602Z,3620
2017-04-13T08:39:41.922Z,2892
2017-04-13T08:41:49.284Z,2580
2017-04-13T08:44:01.607Z,3352
2017-04-13T08:46:14.019Z,3576
2017-04-13T08:48:26.223Z,4780
2017-04-13T08:50:38.422Z,5920
2017-04-13T08:52:50.701Z,10336
2017-04-13T08:55:02.935Z,8572
2017-04-13T08:57:15.179Z,7472
2017-04-13T08:59:27.683Z,9928
2017-04-13T09:01:40.053Z,10228
2017-04-13T09:03:52.455Z,9248
2017-04-13T09:06:05.236Z,11748
2017-04-13T09:08:17.774Z,8284
2017-04-13T09:10:30.442Z,8544
2017-04-13T09:12:43.080Z,7832
2017-04-13T09:14:56.202Z,6872
2017-04-13T09:17:08.709Z,7544
2017-04-13T09:19:21.023Z,7672
2017-04-13T09:21:33.505Z,7464
2017-04-13T09:23:45.922Z,6400
2017-04-13T09:25:58.203Z,5932
2017-04-13T09:28:10.591Z,8912
2017-04-13T09:30:17.902Z,9896
2017-04-13T09:32:30.153Z,9228
2017-04-13T09:34:42.333Z,6680
2017-04-13T09:36:54.740Z,5420
2017-04-13T09:39:07.253Z,6472
2017-04-13T09:41:20.839Z,5420
2017-04-13T09:43:33.507Z,5708
2017-04-13T09:45:45.939Z,6328
2017-04-13T09:47:58.468Z,8520
2017-04-13T09:50:10.981Z,6468
2017-04-13T09:52:23.356Z,7888
2017-04-13T09:54:35.717Z,10196
2017-04-13T09:56:47.988Z,10368
2017-04-13T09:59:00.350Z,11136
2017-04-13T10:01:12.594Z,12328
2017-04-13T10:03:24.849Z,14200
2017-04-13T10:05:37.509Z,14184
2017-04-13T10:07:49.761Z,14044
2017-04-13T10:10:02.032Z,16096
2017-04-13T10:12:14.418Z,11416
2017-04-13T10:14:26.796Z,8660
2017-04-13T10:16:56.012Z,11036
2017-04-13T10:19:09.423Z,8248
2017-04-13T10:21:21.844Z,7576
2017-04-13T10:23:34.081Z,10716
2017-04-13T10:25:46.316Z,14740
2017-04-13T10:27:58.686Z,19168
2017-04-13T10:30:20.974Z,15744
2017-04-13T10:32:50.141Z,10308
2017-04-13T10:35:08.528Z,8024
2017-04-13T10:37:28.453Z,10048
2017-04-13T10:39:50.165Z,11184
2017-04-13T10:42:17.022Z,15488
2017-04-13T10:44:33.388Z,20928
2017-04-13T10:46:47.768Z,21088
2017-04-13T10:49:00.511Z,20096
2017-04-13T10:51:17.508Z,18208
2017-04-13T10:53:38.184Z,14676
2017-04-13T10:56:14.383Z,10708
2017-04-13T10:59:13.604Z,14068
2017-04-13T11:02:11.139Z,17984
2017-04-13T11:05:08.621Z,17344
2017-04-13T11:08:01.740Z,14724
2017-04-13T11:11:01.901Z,16992
2017-04-13T11:14:03.230Z,14396
2017-04-13T11:17:01.548Z,12972
2017-04-13T11:19:57.374Z,16768
2017-04-13T11:22:52.092Z,22784
2017-04-13T11:25:38.070Z,25120
2017-04-13T11:27:45.695Z,27744
2017-04-13T11:29:58.656Z,29216
2017-04-13T11:32:12.460Z,24832
2017-04-13T11:34:25.154Z,25344
2017-04-13T11:36:37.605Z,21856
2017-04-13T11:38:49.904Z,20544
2017-04-13T11:41:02.234Z,23296
2017-04-13T11:43:14.678Z,18816
2017-04-13T11:45:22.147Z,14144
2017-04-13T11:47:27.734Z,16448
2017-04-13T11:49:39.965Z,8976
2017-04-13T11:51:47.310Z,8340
2017-04-13T11:53:59.670Z,6908
2017-04-13T11:56:12.016Z,8480
2017-04-13T11:58:24.356Z,10860
2017-04-13T12:00:36.717Z,14232
2017-04-13T12:02:49.000Z,15680
2017-04-13T12:05:01.348Z,18304
2017-04-13T12:07:13.678Z,28256
2017-04-13T12:09:25.900Z,32320
2017-04-13T12:11:39.318Z,40576
2017-04-13T12:13:51.981Z,36896
2017-04-13T12:15:59.289Z,40224
2017-04-13T12:18:11.636Z,31616
2017-04-13T12:20:23.889Z,36768
2017-04-13T12:22:36.201Z,34848
2017-04-13T12:24:48.578Z,26656
2017-04-13T12:27:00.826Z,11900
2017-04-13T12:29:13.218Z,16736
2017-04-13T12:31:25.656Z,28736
2017-04-13T12:33:38.261Z,16576
2017-04-13T12:35:50.585Z,15328
2017-04-13T12:38:34.814Z,20224
2017-04-13T12:40:47.144Z,12352
2017-04-13T12:42:59.498Z,9144
2017-04-13T12:45:11.841Z,8004
2017-04-13T12:47:24.377Z,6024
2017-04-13T12:49:36.664Z,5780
2017-04-13T12:51:49.226Z,4892
2017-04-13T12:53:56.909Z,4668
2017-04-13T12:56:09.214Z,5500
2017-04-13T12:58:21.592Z,10968
2017-04-13T13:00:33.906Z,15872
2017-04-13T13:02:46.427Z,11640
2017-04-13T13:04:58.685Z,14064
2017-04-13T13:07:06.013Z,21248
2017-04-13T13:09:18.223Z,19520
2017-04-13T13:11:30.411Z,18272
2017-04-13T13:13:42.688Z,25824
2017-04-13T13:15:54.977Z,21696
2017-04-13T13:18:02.322Z,26720
2017-04-13T13:20:14.542Z,32992
2017-04-13T13:22:26.741Z,23104
2017-04-13T13:24:38.976Z,16736
2017-04-13T13:26:51.308Z,31168
2017-04-13T13:29:03.715Z,35072
2017-04-13T13:31:16.004Z,15808
2017-04-13T13:33:28.189Z,12048
2017-04-13T13:35:40.466Z,10892
2017-04-13T13:37:52.749Z,14292
2017-04-13T13:40:04.984Z,18784
2017-04-13T13:42:17.287Z,18560
2017-04-13T13:44:29.507Z,20864
2017-04-13T13:46:41.968Z,22464
2017-04-13T13:48:54.299Z,17088
2017-04-13T13:51:06.608Z,16032
2017-04-13T13:53:18.867Z,18336
2017-04-13T13:55:31.173Z,19616
2017-04-13T13:57:43.801Z,22048
2017-04-13T13:59:56.246Z,20576
2017-04-13T14:02:08.636Z,22528
2017-04-13T14:04:20.937Z,27168
2017-04-13T14:06:33.232Z,19264
2017-04-13T14:08:45.662Z,17344
2017-04-13T14:10:57.915Z,19328
2017-04-13T14:13:10.612Z,16832
2017-04-13T14:15:23.104Z,12132
2017-04-13T14:17:35.476Z,13268
2017-04-13T14:19:47.970Z,12240
2017-04-13T14:22:00.230Z,13132
2017-04-13T14:24:12.682Z,15008
2017-04-13T14:26:24.987Z,13824
2017-04-13T14:28:37.394Z,12852
2017-04-13T14:30:44.947Z,14476
2017-04-13T14:32:57.316Z,15744
2017-04-13T14:35:09.810Z,13740
2017-04-13T14:37:22.105Z,10152
2017-04-13T14:39:34.360Z,7848
2017-04-13T14:41:46.701Z,7036
2017-04-13T14:43:59.043Z,8432
2017-04-13T14:46:11.517Z,9208
2017-04-13T14:48:23.829Z,11188
2017-04-13T14:50:36.160Z,15392
2017-04-13T14:52:48.558Z,22784
2017-04-13T14:55:00.910Z,17824
2017-04-13T14:57:13.344Z,16416
2017-04-13T14:59:25.644Z,10692
2017-04-13T15:01:37.872Z,8952
2017-04-13T15:03:50.211Z,10264
2017-04-13T15:06:02.562Z,11448
2017-04-13T15:08:14.884Z,11044
2017-04-13T15:10:28.852Z,10156
2017-04-13T15:12:42.372Z,10208
2017-04-13T15:14:55.444Z,13556
2017-04-13T15:17:09.776Z,11160
2017-04-13T15:19:18.668Z,9928
2017-04-13T15:21:33.184Z,9708
2017-04-13T15:23:47.149Z,10056
2017-04-13T15:26:01.247Z,9508
2017-04-13T15:28:15.649Z,9040
2017-04-13T15:30:29.675Z,9212
2017-04-13T15:32:43.418Z,10192
2017-04-13T15:34:58.397Z,11324
2017-04-13T15:37:12.198Z,12152
2017-04-13T15:39:32.420Z,12028
2017-04-13T15:41:45.999Z,10976
2017-04-13T15:43:59.518Z,11668
2017-04-13T15:46:14.865Z,11540
2017-04-13T15:48:24.606Z,11932
2017-04-13T15:50:38.256Z,11544
2017-04-13T15:52:54.388Z,15040
2017-04-13T15:55:07.969Z,15104
2017-04-13T15:57:22.552Z,13596
2017-04-13T15:59:36.234Z,13168
2017-04-13T16:01:51.276Z,11896
2017-04-13T16:04:05.693Z,11128
2017-04-13T16:06:18.808Z,12344
2017-04-13T16:08:31.549Z,11316
2017-04-13T16:10:44.284Z,10488
2017-04-13T16:12:56.651Z,9332
2017-04-13T16:15:09.055Z,10044
2017-04-13T16:17:21.305Z,9888
2017-04-13T16:19:33.734Z,9528
2017-04-13T16:21:45.947Z,9132
2017-04-13T16:23:58.341Z,8568
2017-04-13T16:26:10.675Z,7968
2017-04-13T16:28:23.383Z,7084
2017-04-13T16:30:35.709Z,6532
2017-04-13T16:32:48.002Z,6144
2017-04-13T16:35:00.317Z,5908
2017-04-13T16:37:12.794Z,5808
2017-04-13T16:39:25.087Z,5684
2017-04-13T16:41:37.454Z,5560
2017-04-13T16:43:49.854Z,5080
2017-04-13T16:46:02.375Z,4840
2017-04-13T16:48:14.585Z,4768
2017-04-13T16:50:26.908Z,4304
2017-04-13T16:52:34.250Z,4240
2017-04-13T16:54:46.865Z,4236
2017-04-13T16:56:59.273Z,4032
2017-04-13T16:59:11.652Z,3812
2017-04-13T17:01:24.045Z,3504
2017-04-13T17:03:31.526Z,3284
2017-04-13T17:05:46.804Z,3176
2017-04-13T17:08:33.058Z,3064
2017-04-13T17:11:26.632Z,2852
2017-04-13T17:14:27.895Z,2620
2017-04-13T17:17:20.751Z,2568
2017-04-13T17:20:29.678Z,2308
2017-04-13T17:23:32.625Z,2040
2017-04-13T17:26:36.972Z,1916
2017-04-13T17:29:42.870Z,1824
2017-04-13T17:32:45.711Z,1768
2017-04-13T17:35:40.435Z,1588
2017-04-13T17:38:40.835Z,1360
2017-04-13T17:41:41.534Z,1068
2017-04-13T17:44:38.987Z,840
2017-04-13T17:47:41.311Z,660
2017-04-13T17:50:29.591Z,520
2017-04-13T17:52:43.078Z,440
2017-04-13T17:54:55.531Z,384
2017-04-13T17:57:08.464Z,328
2017-04-13T17:59:20.909Z,276
2017-04-13T18:01:33.204Z,224
2017-04-13T18:03:45.506Z,180
2017-04-13T18:05:57.909Z,148
2017-04-13T18:08:05.287Z,112
2017-04-13T18:10:15.857Z,84
2017-04-13T18:12:29.921Z,64
2017-04-13T18:14:42.887Z,44
2017-04-13T18:16:56.066Z,32
2017-04-13T18:19:08.596Z,24
2017-04-13T18:24:30.742Z,8
2017-04-13T18:26:43.711Z,8
2017-04-13T18:28:57.010Z,4
2017-04-13T18:31:43.556Z,4
2017-04-13T18:34:34.749Z,4
2017-04-13T18:37:24.478Z,0
2017-04-13T18:40:10.670Z,0
2017-04-13T18:42:39.939Z,0
2017-04-13T18:44:55.225Z,0
2017-04-13T18:47:08.501Z,0
2017-04-13T18:49:23.329Z,0
2017-04-13T18:51:55.920Z,0
2017-04-13T18:54:08.355Z,0
2017-04-13T18:56:20.587Z,0
2017-04-13T18:58:27.986Z,0
2017-04-13T19:00:45.818Z,0
2017-04-13T19:02:58.131Z,0
2017-04-13T19:05:11.767Z,0
2017-04-13T19:07:24.089Z,0
2017-04-13T19:09:36.385Z,0
2017-04-13T19:11:43.806Z,0
2017-04-13T19:13:56.134Z,0
2017-04-13T19:16:08.352Z,0
2017-04-13T19:18:20.746Z,0
2017-04-13T19:20:33.044Z,0
2017-04-13T19:22:45.427Z,0
2017-04-13T19:24:58.905Z,0
2017-04-13T19:27:11.339Z,0
2017-04-13T19:29:23.821Z,0
2017-04-13T19:31:38.790Z,0
2017-04-13T19:33:51.201Z,0
2017-04-13T19:36:03.580Z,0
2017-04-13T19:38:11.029Z,0
2017-04-13T19:40:18.405Z,0
2017-04-13T19:42:30.963Z,0
2017-04-13T19:44:43.321Z,0
2017-04-13T19:46:55.623Z,0
2017-04-13T19:49:07.897Z,0
2017-04-13T19:51:20.206Z,0
2017-04-13T19:53:32.599Z,0
2017-04-13T19:55:40.031Z,0
2017-04-13T19:57:52.432Z,0
2017-04-13T20:00:04.897Z,0
2017-04-13T20:02:17.319Z,0
2017-04-13T20:04:29.754Z,0
2017-04-13T20:06:42.118Z,0
2017-04-13T20:08:54.538Z,0
2017-04-13T20:11:06.924Z,0
2017-04-13T20:13:19.194Z,0
2017-04-13T20:15:32.507Z,0
2017-04-13T20:17:44.820Z,0
2017-04-13T20:19:58.472Z,0
2017-04-13T20:22:12.473Z,0
2017-04-13T20:24:26.453Z,0
2017-04-13T20:26:39.165Z,0
2017-04-13T20:28:51.911Z,0
2017-04-13T20:31:00.323Z,0
2017-04-13T20:33:13.779Z,0
2017-04-13T20:35:26.568Z,0
2017-04-13T20:37:40.786Z,0
2017-04-13T20:39:55.145Z,0
2017-04-13T20:42:10.170Z,0
2017-04-13T20:44:23.584Z,0
2017-04-13T20:46:41.209Z,0
2017-04-13T20:49:13.064Z,0
2017-04-13T20:51:24.057Z,0
2017-04-13T20:53:36.652Z,0
2017-04-13T20:55:49.202Z,0
2017-04-13T20:58:02.546Z,0
2017-04-13T21:02:22.373Z,0
2017-04-13T21:04:36.321Z,0
2017-04-13T21:06:49.750Z,0
2017-04-13T21:09:03.133Z,0
2017-04-13T21:11:16.524Z,0
2017-04-13T21:13:29.439Z,0
2017-04-13T21:15:42.488Z,0
2017-04-13T21:17:56.016Z,0
2017-04-13T21:20:09.103Z,0
2017-04-13T21:22:22.325Z,0
2017-04-13T21:24:35.517Z,0
2017-04-13T21:26:49.081Z,0
2017-04-13T21:29:02.381Z,0
2017-04-13T21:31:10.575Z,0
2017-04-13T21:33:23.861Z,0
2017-04-13T21:35:37.237Z,0
2017-04-13T21:37:50.536Z,0
2017-04-13T21:40:03.537Z,0
2017-04-13T21:42:16.113Z,0
2017-04-13T21:44:28.853Z,0
2017-04-13T21:46:42.062Z,0
2017-04-13T21:48:54.669Z,0
2017-04-13T21:51:08.124Z,0
2017-04-13T21:53:21.563Z,0
2017-04-13T21:55:37.500Z,0
2017-04-13T21:57:53.291Z,0
2017-04-13T22:00:06.818Z,0
2017-04-13T22:02:19.870Z,0
2017-04-13T22:04:32.908Z,0
2017-04-13T22:06:36.492Z,0
2017-04-13T22:08:49.331Z,0
2017-04-13T22:11:02.446Z,0
2017-04-13T22:13:15.812Z,0
2017-04-13T22:15:28.943Z,0
2017-04-13T22:17:42.670Z,0
2017-04-13T22:19:56.023Z,0
2017-04-13T22:22:09.392Z,0
2017-04-13T22:24:22.334Z,0
2017-04-13T22:26:34.729Z,0
2017-04-13T22:28:47.009Z,0
2017-04-13T22:30:59.295Z,0
2017-04-13T22:33:11.571Z,0
2017-04-13T22:35:24.874Z,0
2017-04-13T22:37:37.184Z,0
2017-04-13T22:39:49.686Z,0
2017-04-13T22:42:02.128Z,0
2017-04-13T22:44:14.509Z,0
2017-04-13T22:46:26.731Z,0
2017-04-13T22:48:39.171Z,0
2017-04-13T22:50:51.450Z,0
2017-04-13T22:53:03.674Z,0
2017-04-13T22:55:10.977Z,0
2017-04-13T22:57:23.284Z,0
2017-04-13T22:59:35.595Z,0
2017-04-13T23:01:47.859Z,0
2017-04-13T23:04:00.231Z,0
2017-04-13T23:06:07.455Z,0
2017-04-13T23:08:19.876Z,0
2017-04-13T23:10:32.148Z,0
2017-04-13T23:12:44.558Z,0
2017-04-13T23:14:51.761Z,0
2017-04-13T23:17:04.020Z,0
2017-04-13T23:19:16.230Z,0
2017-04-13T23:21:28.563Z,0
2017-04-13T23:23:40.744Z,0
2017-04-13T23:25:53.059Z,0
2017-04-13T23:28:05.408Z,0
2017-04-13T23:30:17.648Z,0
2017-04-13T23:32:29.949Z,0
2017-04-13T23:34:37.263Z,0
2017-04-13T23:36:49.420Z,0
2017-04-13T23:38:56.729Z,0
2017-04-13T23:41:08.984Z,0
2017-04-13T23:43:21.341Z,0
2017-04-13T23:45:33.632Z,0
2017-04-13T23:47:45.948Z,0
2017-04-13T23:49:58.264Z,0
2017-04-13T23:52:10.502Z,0
2017-04-13T23:54:22.809Z,0
2017-04-13T23:56:35.141Z,0
2017-04-13T23:58:47.379Z,0
